createdAt,value
2017-08-01T00:01:30.251Z,5.90
2017-08-01T00:03:58.763Z,5.67
2017-08-01T00:06:28.313Z,6.00
2017-08-01T00:08:56.790Z,6.57
2017-08-01T00:11:25.267Z,5.90
2017-08-01T00:13:53.714Z,5.97
2017-08-01T00:16:23.608Z,5.30
2017-08-01T00:18:52.973Z,6.00
2017-08-01T00:21:21.565Z,6.50
2017-08-01T00:23:50.007Z,6.20
2017-08-01T00:26:18.425Z,5.70
2017-08-01T00:28:46.857Z,5.73
2017-08-01T00:31:16.085Z,6.53
2017-08-01T00:33:44.517Z,6.40
2017-08-01T00:36:13.699Z,6.40
2017-08-01T00:38:42.168Z,6.20
2017-08-01T00:41:10.589Z,6.07
2017-08-01T00:43:39.042Z,6.80
2017-08-01T00:46:07.947Z,6.40
2017-08-01T00:48:37.235Z,6.03
2017-08-01T00:51:05.698Z,6.70
2017-08-01T00:53:34.144Z,6.40
2017-08-01T00:56:02.866Z,5.73
2017-08-01T00:58:31.308Z,7.37
2017-08-01T01:00:59.812Z,6.77
2017-08-01T01:03:28.274Z,6.40
2017-08-01T01:05:56.705Z,6.30
2017-08-01T01:08:25.961Z,6.20
2017-08-01T01:10:54.412Z,7.00
2017-08-01T01:13:22.830Z,6.73
2017-08-01T01:15:51.314Z,6.70
2017-08-01T01:18:19.767Z,6.70
2017-08-01T01:20:48.197Z,6.57
2017-08-01T01:23:16.725Z,6.10
2017-08-01T01:25:45.189Z,7.00
2017-08-01T01:28:13.631Z,6.00
2017-08-01T01:30:41.722Z,6.17
2017-08-01T01:33:10.556Z,6.70
2017-08-01T01:35:39.317Z,6.80
2017-08-01T01:38:08.391Z,6.70
2017-08-01T01:40:37.591Z,6.90
2017-08-01T01:43:06.421Z,7.10
2017-08-01T01:45:34.887Z,7.10
2017-08-01T01:48:03.285Z,6.70
2017-08-01T01:50:31.851Z,6.83
2017-08-01T01:53:00.244Z,6.70
2017-08-01T01:55:28.659Z,7.20
2017-08-01T01:57:57.922Z,6.93
2017-08-01T02:00:26.336Z,7.30
2017-08-01T02:02:55.721Z,6.60
2017-08-01T02:05:24.196Z,6.80
2017-08-01T02:07:52.605Z,7.27
2017-08-01T02:10:21.777Z,6.70
2017-08-01T02:12:50.224Z,6.47
2017-08-01T02:15:18.691Z,7.63
2017-08-01T02:17:47.124Z,7.00
2017-08-01T02:20:16.507Z,7.33
2017-08-01T02:22:44.561Z,7.17
2017-08-01T02:25:12.996Z,6.80
2017-08-01T02:27:42.228Z,7.10
2017-08-01T02:30:10.646Z,7.20
2017-08-01T02:32:39.069Z,8.03
2017-08-01T02:35:08.334Z,7.13
2017-08-01T02:37:36.392Z,7.60
2017-08-01T02:40:04.821Z,7.20
2017-08-01T02:42:34.027Z,8.30
2017-08-01T02:45:02.487Z,8.10
2017-08-01T02:47:31.660Z,9.00
2017-08-01T02:50:01.315Z,9.30
2017-08-01T02:52:30.286Z,8.80
2017-08-01T02:54:58.720Z,9.27
2017-08-01T02:57:27.208Z,9.00
2017-08-01T02:59:55.639Z,7.60
2017-08-01T03:02:24.057Z,8.13
2017-08-01T03:04:52.497Z,9.27
2017-08-01T03:07:20.984Z,9.10
2017-08-01T03:09:49.300Z,8.00
2017-08-01T03:12:17.772Z,7.60
2017-08-01T03:14:46.237Z,7.80
2017-08-01T03:17:14.327Z,8.20
2017-08-01T03:19:42.786Z,8.80
2017-08-01T03:22:11.225Z,8.33
2017-08-01T03:24:39.646Z,8.73
2017-08-01T03:27:08.086Z,8.90
2017-08-01T03:29:36.523Z,8.70
2017-08-01T03:32:05.649Z,8.47
2017-08-01T03:34:34.875Z,8.03
2017-08-01T03:37:03.301Z,8.23
2017-08-01T03:39:31.716Z,8.97
2017-08-01T03:42:00.182Z,10.97
2017-08-01T03:44:29.379Z,8.37
2017-08-01T03:46:57.805Z,7.90
2017-08-01T03:49:26.241Z,7.90
2017-08-01T03:51:54.757Z,7.87
2017-08-01T03:54:23.197Z,8.47
2017-08-01T03:56:52.397Z,8.33
2017-08-01T03:59:20.829Z,8.67
2017-08-01T04:01:49.273Z,7.90
2017-08-01T04:04:17.808Z,7.60
2017-08-01T04:06:46.271Z,8.27
2017-08-01T04:09:14.677Z,8.43
2017-08-01T04:11:43.865Z,7.10
2017-08-01T04:14:12.286Z,8.47
2017-08-01T04:16:40.811Z,8.70
2017-08-01T04:19:09.220Z,8.27
2017-08-01T04:21:38.403Z,8.60
2017-08-01T04:24:07.595Z,8.00
2017-08-01T04:26:36.018Z,7.63
2017-08-01T04:29:04.477Z,7.93
2017-08-01T04:31:32.929Z,8.50
2017-08-01T04:34:01.411Z,7.53
2017-08-01T04:36:31.088Z,7.97
2017-08-01T04:39:00.443Z,8.37
2017-08-01T04:41:29.910Z,8.90
2017-08-01T04:43:58.358Z,8.57
2017-08-01T04:46:26.800Z,9.63
2017-08-01T04:48:55.270Z,8.30
2017-08-01T04:51:23.729Z,8.40
2017-08-01T04:53:52.324Z,8.93
2017-08-01T04:56:20.749Z,8.80
2017-08-01T04:58:49.177Z,9.13
2017-08-01T05:01:17.648Z,8.10
2017-08-01T05:03:46.094Z,8.50
2017-08-01T05:06:14.534Z,8.80
2017-08-01T05:08:43.722Z,9.07
2017-08-01T05:11:12.165Z,7.33
2017-08-01T05:13:40.622Z,8.47
2017-08-01T05:16:10.522Z,7.83
2017-08-01T05:18:39.718Z,7.20
2017-08-01T05:21:08.952Z,7.40
2017-08-01T05:23:39.029Z,7.60
2017-08-01T05:26:08.238Z,7.57
2017-08-01T05:28:37.773Z,6.90
2017-08-01T05:31:06.429Z,7.00
2017-08-01T05:33:35.896Z,7.07
2017-08-01T05:36:04.409Z,7.03
2017-08-01T05:38:33.733Z,8.50
2017-08-01T05:41:04.351Z,8.40
2017-08-01T05:43:32.561Z,9.10
2017-08-01T05:46:01.601Z,8.50
2017-08-01T05:48:30.969Z,8.43
2017-08-01T05:50:59.383Z,8.60
2017-08-01T05:53:28.521Z,7.40
2017-08-01T05:55:57.620Z,9.57
2017-08-01T05:58:26.032Z,8.53
2017-08-01T06:00:56.097Z,7.90
2017-08-01T06:03:25.604Z,8.30
2017-08-01T06:05:54.021Z,7.97
2017-08-01T06:08:22.454Z,7.37
2017-08-01T06:10:50.869Z,8.10
2017-08-01T06:13:20.931Z,9.00
2017-08-01T06:15:50.331Z,8.50
2017-08-01T06:18:18.744Z,7.90
2017-08-01T06:20:47.187Z,6.40
2017-08-01T06:23:16.410Z,6.40
2017-08-01T06:25:44.835Z,6.60
2017-08-01T06:28:14.115Z,6.07
2017-08-01T06:30:42.549Z,7.13
2017-08-01T06:33:11.769Z,5.70
2017-08-01T06:35:41.043Z,6.23
2017-08-01T06:38:09.493Z,5.17
2017-08-01T06:40:37.900Z,5.53
2017-08-01T06:43:07.256Z,4.90
2017-08-01T06:45:35.373Z,5.57
2017-08-01T06:48:03.783Z,4.77
2017-08-01T06:50:32.236Z,4.80
2017-08-01T06:53:00.709Z,5.43
2017-08-01T06:55:29.144Z,5.30
2017-08-01T06:57:57.556Z,4.70
2017-08-01T07:00:26.936Z,4.80
2017-08-01T07:02:57.001Z,4.60
2017-08-01T07:05:26.428Z,4.83
2017-08-01T07:07:55.100Z,4.73
2017-08-01T07:10:23.884Z,4.80
2017-08-01T07:12:53.254Z,4.70
2017-08-01T07:15:22.039Z,5.03
2017-08-01T07:17:51.166Z,5.30
2017-08-01T07:20:19.560Z,5.50
2017-08-01T07:22:48.042Z,5.70
2017-08-01T07:25:16.545Z,5.50
2017-08-01T07:27:44.959Z,4.93
2017-08-01T07:30:13.466Z,5.10
2017-08-01T07:32:41.885Z,5.63
2017-08-01T07:35:10.307Z,5.63
2017-08-01T07:37:38.737Z,5.03
2017-08-01T07:40:07.152Z,6.17
2017-08-01T07:42:35.563Z,5.53
2017-08-01T07:45:04.007Z,5.10
2017-08-01T07:47:33.185Z,5.30
2017-08-01T07:50:01.655Z,5.53
2017-08-01T07:52:30.081Z,6.03
2017-08-01T07:54:58.508Z,5.10
2017-08-01T07:57:26.928Z,5.43
2017-08-01T07:59:55.364Z,5.53
2017-08-01T08:02:24.002Z,5.60
2017-08-01T08:04:52.590Z,5.03
2017-08-01T08:07:21.041Z,4.90
2017-08-01T08:09:51.723Z,5.43
2017-08-01T08:12:20.225Z,5.10
2017-08-01T08:14:48.841Z,5.30
2017-08-01T08:17:17.265Z,5.00
2017-08-01T08:19:45.906Z,5.27
2017-08-01T08:22:14.500Z,4.63
2017-08-01T08:24:42.929Z,5.50
2017-08-01T08:27:11.985Z,4.93
2017-08-01T08:29:40.401Z,6.13
2017-08-01T08:32:08.824Z,5.70
2017-08-01T08:34:37.328Z,5.70
2017-08-01T08:37:05.916Z,5.83
2017-08-01T08:39:34.342Z,5.57
2017-08-01T08:42:02.770Z,5.83
2017-08-01T08:44:31.173Z,5.40
2017-08-01T08:46:59.597Z,5.20
2017-08-01T08:49:28.032Z,5.77
2017-08-01T08:51:56.436Z,6.90
2017-08-01T08:54:26.616Z,6.77
2017-08-01T08:56:55.106Z,6.87
2017-08-01T08:59:23.645Z,7.70
2017-08-01T09:01:52.062Z,6.10
2017-08-01T09:04:20.543Z,6.70
2017-08-01T09:06:48.948Z,6.70
2017-08-01T09:09:18.148Z,6.83
2017-08-01T09:11:47.700Z,6.60
2017-08-01T09:14:16.106Z,7.40
2017-08-01T09:16:44.513Z,6.90
2017-08-01T09:19:14.012Z,6.77
2017-08-01T09:21:43.090Z,5.73
2017-08-01T09:24:11.505Z,6.27
2017-08-01T09:26:40.705Z,5.17
2017-08-01T09:29:09.138Z,5.27
2017-08-01T09:31:38.237Z,5.70
2017-08-01T09:34:06.772Z,5.90
2017-08-01T09:36:35.196Z,4.77
2017-08-01T09:39:03.261Z,3.83
2017-08-01T09:41:31.712Z,4.30
2017-08-01T09:44:02.058Z,4.13
2017-08-01T09:46:30.473Z,4.40
2017-08-01T09:49:01.504Z,4.43
2017-08-01T09:51:30.717Z,4.40
2017-08-01T09:53:59.902Z,4.00
2017-08-01T09:56:29.100Z,3.90
2017-08-01T09:58:58.288Z,6.60
2017-08-01T10:01:26.708Z,5.30
2017-08-01T10:03:55.192Z,6.57
2017-08-01T10:06:23.629Z,6.43
2017-08-01T10:08:52.049Z,7.00
2017-08-01T10:11:22.337Z,6.33
2017-08-01T10:13:51.521Z,6.70
2017-08-01T10:16:19.960Z,10.30
2017-08-01T10:18:49.449Z,8.50
2017-08-01T10:21:17.864Z,8.57
2017-08-01T10:23:46.314Z,8.50
2017-08-01T10:26:14.741Z,9.00
2017-08-01T10:28:44.141Z,8.73
2017-08-01T10:31:13.129Z,8.00
2017-08-01T10:33:41.579Z,7.07
2017-08-01T10:36:10.031Z,7.00
2017-08-01T10:38:39.382Z,7.33
2017-08-01T10:41:07.800Z,7.60
2017-08-01T10:43:37.852Z,7.73
2017-08-01T10:46:06.283Z,6.90
2017-08-01T10:48:35.478Z,6.97
2017-08-01T10:51:05.445Z,6.37
2017-08-01T10:53:33.932Z,6.40
2017-08-01T10:56:03.977Z,5.90
2017-08-01T10:58:32.497Z,7.07
2017-08-01T11:01:00.940Z,15.33
2017-08-01T11:03:29.366Z,12.57
2017-08-01T11:05:57.816Z,6.83
2017-08-01T11:08:27.008Z,6.40
2017-08-01T11:10:56.202Z,7.40
2017-08-01T11:13:25.422Z,8.10
2017-08-01T11:15:53.899Z,6.93
2017-08-01T11:18:22.313Z,7.03
2017-08-01T11:20:50.765Z,7.33
2017-08-01T11:23:19.290Z,9.20
2017-08-01T11:25:47.706Z,7.50
2017-08-01T11:28:16.918Z,7.13
2017-08-01T11:30:46.142Z,7.33
2017-08-01T11:33:14.575Z,9.20
2017-08-01T11:35:44.741Z,6.60
2017-08-01T11:38:13.175Z,12.10
2017-08-01T11:40:42.380Z,7.80
2017-08-01T11:43:11.636Z,25.17
2017-08-01T11:45:40.053Z,6.70
2017-08-01T11:48:09.245Z,8.30
2017-08-01T11:50:38.448Z,6.23
2017-08-01T11:53:06.882Z,6.77
2017-08-01T11:55:35.349Z,5.97
2017-08-01T11:58:03.792Z,5.80
2017-08-01T12:00:32.787Z,5.27
2017-08-01T12:03:01.992Z,6.20
2017-08-01T12:05:30.737Z,5.80
2017-08-01T12:07:59.155Z,5.70
2017-08-01T12:10:27.592Z,11.70
2017-08-01T12:12:56.542Z,5.63
2017-08-01T12:15:24.974Z,7.97
2017-08-01T12:17:53.393Z,7.43
2017-08-01T12:20:21.838Z,6.40
2017-08-01T12:22:51.032Z,6.57
2017-08-01T12:25:19.885Z,6.10
2017-08-01T12:27:48.340Z,7.00
2017-08-01T12:30:16.775Z,7.10
2017-08-01T12:32:45.877Z,7.13
2017-08-01T12:35:15.088Z,7.37
2017-08-01T12:37:44.338Z,6.50
2017-08-01T12:40:12.745Z,7.00
2017-08-01T12:42:41.176Z,7.57
2017-08-01T12:45:09.585Z,6.40
2017-08-01T12:47:38.010Z,6.93
2017-08-01T12:50:06.446Z,7.10
2017-08-01T12:52:34.903Z,7.03
2017-08-01T12:55:03.321Z,6.60
2017-08-01T12:57:31.774Z,6.60
2017-08-01T13:00:00.928Z,6.30
2017-08-01T13:02:29.353Z,6.33
2017-08-01T13:04:57.785Z,7.67
2017-08-01T13:07:27.072Z,6.83
2017-08-01T13:09:55.616Z,8.43
2017-08-01T13:12:24.782Z,8.50
2017-08-01T13:14:53.262Z,7.83
2017-08-01T13:17:21.749Z,8.40
2017-08-01T13:19:50.259Z,8.67
2017-08-01T13:22:18.672Z,8.20
2017-08-01T13:24:47.092Z,10.10
2017-08-01T13:27:15.548Z,9.20
2017-08-01T13:29:43.976Z,8.57
2017-08-01T13:32:16.218Z,8.07
2017-08-01T13:34:44.670Z,7.50
2017-08-01T13:37:13.130Z,8.80
2017-08-01T13:39:42.341Z,12.33
2017-08-01T13:42:10.829Z,11.27
2017-08-01T13:44:39.299Z,9.37
2017-08-01T13:47:07.729Z,8.27
2017-08-01T13:49:36.149Z,7.20
2017-08-01T13:52:04.230Z,7.63
2017-08-01T13:54:32.774Z,9.10
2017-08-01T13:57:01.185Z,9.67
2017-08-01T13:59:30.119Z,9.77
2017-08-01T14:01:58.568Z,9.97
2017-08-01T14:04:26.980Z,9.00
2017-08-01T14:06:55.404Z,9.63
2017-08-01T14:09:24.650Z,8.80
2017-08-01T14:11:53.074Z,10.67
2017-08-01T14:14:22.286Z,14.60
2017-08-01T14:16:50.730Z,10.70
2017-08-01T14:19:19.153Z,11.10
2017-08-01T14:21:47.584Z,14.47
2017-08-01T14:24:16.041Z,14.70
2017-08-01T14:26:44.469Z,13.57
2017-08-01T14:29:14.630Z,12.47
2017-08-01T14:31:43.728Z,15.57
2017-08-01T14:34:12.164Z,12.80
2017-08-01T14:36:41.353Z,12.93
2017-08-01T14:39:09.795Z,11.90
2017-08-01T14:41:38.222Z,11.90
2017-08-01T14:44:08.557Z,12.10
2017-08-01T14:46:37.030Z,12.43
2017-08-01T14:49:06.262Z,13.30
2017-08-01T14:51:34.682Z,12.30
2017-08-01T14:54:03.120Z,11.43
2017-08-01T14:56:31.539Z,11.23
2017-08-01T14:58:59.949Z,12.73
2017-08-01T15:01:28.393Z,12.40
2017-08-01T15:03:56.917Z,11.10
2017-08-01T15:06:25.377Z,13.00
2017-08-01T15:08:54.687Z,12.00
2017-08-01T15:11:23.111Z,15.10
2017-08-01T15:13:51.554Z,18.00
2017-08-01T15:16:19.985Z,12.00
2017-08-01T15:18:48.469Z,12.80
2017-08-01T15:21:16.893Z,11.40
2017-08-01T15:23:45.324Z,12.57
2017-08-01T15:26:13.769Z,13.73
2017-08-01T15:28:42.202Z,12.30
2017-08-01T15:31:10.644Z,13.77
2017-08-01T15:33:39.057Z,13.77
2017-08-01T15:36:08.253Z,12.17
2017-08-01T15:38:36.684Z,14.13
2017-08-01T15:41:05.137Z,13.93
2017-08-01T15:43:33.564Z,12.40
2017-08-01T15:46:02.022Z,11.67
2017-08-01T15:48:30.449Z,12.23
2017-08-01T15:50:59.521Z,12.23
2017-08-01T15:53:28.781Z,11.30
2017-08-01T15:55:57.197Z,13.43
2017-08-01T15:58:25.609Z,13.10
2017-08-01T16:00:55.462Z,15.33
2017-08-01T16:03:23.968Z,12.30
2017-08-01T16:05:52.726Z,14.50
2017-08-01T16:08:21.176Z,12.60
2017-08-01T16:10:50.371Z,11.60
2017-08-01T16:13:18.816Z,11.23
2017-08-01T16:15:47.269Z,12.07
2017-08-01T16:18:17.237Z,13.70
2017-08-01T16:20:46.469Z,17.40
2017-08-01T16:23:14.912Z,13.50
2017-08-01T16:25:44.682Z,14.60
2017-08-01T16:28:13.124Z,12.10
2017-08-01T16:30:41.546Z,11.97
2017-08-01T16:33:09.985Z,12.27
2017-08-01T16:35:38.435Z,12.00
2017-08-01T16:38:08.513Z,11.27
2017-08-01T16:40:36.953Z,11.17
2017-08-01T16:43:05.393Z,12.00
2017-08-01T16:45:35.844Z,14.47
2017-08-01T16:48:04.425Z,13.10
2017-08-01T16:50:33.443Z,11.93
2017-08-01T16:53:01.872Z,11.30
2017-08-01T16:55:30.346Z,11.17
2017-08-01T16:57:58.402Z,9.63
2017-08-01T17:00:26.829Z,9.67
2017-08-01T17:02:56.905Z,9.37
2017-08-01T17:05:25.453Z,10.10
2017-08-01T17:07:54.405Z,9.80
2017-08-01T17:10:23.622Z,11.07
2017-08-01T17:12:51.928Z,9.97
2017-08-01T17:15:20.349Z,10.40
2017-08-01T17:17:48.802Z,9.20
2017-08-01T17:20:17.241Z,8.40
2017-08-01T17:22:45.657Z,8.43
2017-08-01T17:25:14.101Z,9.10
2017-08-01T17:27:42.558Z,9.10
2017-08-01T17:30:12.189Z,9.60
2017-08-01T17:32:40.626Z,9.60
2017-08-01T17:35:10.032Z,9.93
2017-08-01T17:37:38.271Z,10.50
2017-08-01T17:40:06.539Z,10.67
2017-08-01T17:42:34.965Z,10.33
2017-08-01T17:45:03.385Z,12.23
2017-08-01T17:47:31.832Z,13.33
2017-08-01T17:50:01.027Z,14.43
2017-08-01T17:52:30.226Z,13.90
2017-08-01T17:54:59.429Z,13.60
2017-08-01T17:57:28.644Z,12.50
2017-08-01T17:59:57.077Z,11.50
2017-08-01T18:02:25.628Z,12.80
2017-08-01T18:04:54.038Z,11.07
2017-08-01T18:07:22.458Z,11.10
2017-08-01T18:09:50.919Z,11.20
2017-08-01T18:12:20.105Z,11.67
2017-08-01T18:14:48.525Z,11.23
2017-08-01T18:17:16.836Z,13.07
2017-08-01T18:19:46.225Z,13.50
2017-08-01T18:22:15.474Z,14.83
2017-08-01T18:24:44.202Z,14.70
2017-08-01T18:27:12.683Z,11.50
2017-08-01T18:29:42.192Z,11.00
2017-08-01T18:32:12.305Z,11.17
2017-08-01T18:34:41.399Z,11.43
2017-08-01T18:37:11.820Z,11.50
2017-08-01T18:39:43.355Z,10.20
2017-08-01T18:42:11.884Z,10.67
2017-08-01T18:44:41.045Z,18.33
2017-08-01T18:47:11.611Z,12.53
2017-08-01T18:49:41.821Z,15.50
2017-08-01T18:52:11.418Z,12.40
2017-08-01T18:54:39.864Z,13.60
2017-08-01T18:57:08.462Z,11.90
2017-08-01T18:59:37.969Z,10.10
2017-08-01T19:02:06.080Z,11.30
2017-08-01T19:04:34.384Z,10.70
2017-08-01T19:07:02.878Z,11.20
2017-08-01T19:09:31.946Z,10.50
2017-08-01T19:12:01.709Z,12.20
2017-08-01T19:14:30.175Z,13.47
2017-08-01T19:16:58.603Z,14.80
2017-08-01T19:19:26.735Z,15.10
2017-08-01T19:21:55.946Z,19.73
2017-08-01T19:24:24.383Z,13.73
2017-08-01T19:26:54.843Z,12.50
2017-08-01T19:29:23.219Z,14.60
2017-08-01T19:31:52.006Z,14.27
2017-08-01T19:34:20.503Z,13.50
2017-08-01T19:36:48.929Z,13.30
2017-08-01T19:39:18.134Z,13.73
2017-08-01T19:41:46.880Z,14.17
2017-08-01T19:44:15.316Z,13.83
2017-08-01T19:46:45.328Z,14.40
2017-08-01T19:49:14.854Z,13.80
2017-08-01T19:51:43.329Z,15.67
2017-08-01T19:54:12.131Z,12.90
2017-08-01T19:56:40.565Z,12.93
2017-08-01T19:59:09.779Z,11.77
2017-08-01T20:01:38.070Z,12.30
2017-08-01T20:04:07.186Z,10.10
2017-08-01T20:06:35.848Z,10.90
2017-08-01T20:09:03.619Z,9.67
2017-08-01T20:11:32.058Z,9.20
2017-08-01T20:14:01.711Z,9.00
2017-08-01T20:16:31.447Z,9.93
2017-08-01T20:19:02.499Z,9.90
2017-08-01T20:21:32.056Z,9.40
2017-08-01T20:24:01.173Z,9.20
2017-08-01T20:26:31.573Z,8.40
2017-08-01T20:29:00.089Z,10.97
2017-08-01T20:31:28.528Z,10.27
2017-08-01T20:33:59.760Z,10.20
2017-08-01T20:36:29.596Z,9.77
2017-08-01T20:38:57.890Z,9.53
2017-08-01T20:41:26.374Z,8.87
2017-08-01T20:43:54.565Z,9.60
2017-08-01T20:46:23.209Z,9.67
2017-08-01T20:48:52.811Z,8.30
2017-08-01T20:51:22.046Z,8.20
2017-08-01T20:53:51.487Z,8.70
2017-08-01T20:56:20.755Z,9.17
2017-08-01T20:58:49.969Z,8.83
2017-08-01T21:01:19.141Z,8.50
2017-08-01T21:03:47.379Z,8.60
2017-08-01T21:06:16.573Z,9.33
2017-08-01T21:08:45.260Z,8.43
2017-08-01T21:11:14.649Z,7.60
2017-08-01T21:13:43.347Z,7.93
2017-08-01T21:16:11.747Z,7.70
2017-08-01T21:18:40.075Z,7.73
2017-08-01T21:21:09.256Z,7.83
2017-08-01T21:23:38.448Z,8.10
2017-08-01T21:26:08.450Z,8.30
2017-08-01T21:28:36.847Z,7.50
2017-08-01T21:31:06.046Z,7.50
2017-08-01T21:33:34.556Z,8.43
2017-08-01T21:36:03.562Z,8.67
2017-08-01T21:38:31.969Z,9.30
2017-08-01T21:43:33.981Z,9.97
2017-08-01T21:46:03.237Z,8.27
2017-08-01T21:48:31.680Z,8.07
2017-08-01T21:51:00.104Z,7.90
2017-08-01T21:53:29.473Z,8.23
2017-08-01T21:55:58.978Z,9.17
2017-08-01T21:58:27.766Z,8.90
2017-08-01T22:00:56.250Z,9.60
2017-08-01T22:03:25.147Z,9.40
2017-08-01T22:05:58.362Z,9.70
2017-08-01T22:08:26.827Z,9.00
2017-08-01T22:10:54.979Z,8.67
2017-08-01T22:13:24.468Z,10.20
2017-08-01T22:15:52.599Z,10.17
2017-08-01T22:18:21.064Z,9.80
2017-08-01T22:20:50.286Z,10.60
2017-08-01T22:23:18.844Z,9.33
2017-08-01T22:25:48.642Z,9.67
2017-08-01T22:28:17.156Z,9.57
2017-08-01T22:30:46.557Z,9.50
2017-08-01T22:33:15.025Z,9.70
2017-08-01T22:35:44.564Z,10.50
2017-08-01T22:38:13.500Z,10.30
2017-08-01T22:40:42.021Z,10.17
2017-08-01T22:43:12.031Z,9.00
2017-08-01T22:45:40.302Z,10.13
2017-08-01T22:48:08.766Z,10.10
2017-08-01T22:50:37.283Z,11.10
2017-08-01T22:53:06.493Z,12.13
2017-08-01T22:55:35.641Z,11.13
2017-08-01T22:58:04.457Z,10.53
2017-08-01T23:00:33.076Z,10.63
2017-08-01T23:03:01.514Z,11.77
2017-08-01T23:05:30.764Z,12.50
2017-08-01T23:08:00.000Z,13.20
2017-08-01T23:10:28.538Z,12.03
2017-08-01T23:12:57.025Z,11.13
2017-08-01T23:15:25.445Z,12.87
2017-08-01T23:17:53.852Z,40.37
2017-08-01T23:20:22.315Z,31.70
2017-08-01T23:22:51.536Z,20.40
2017-08-01T23:25:19.972Z,14.30
2017-08-01T23:27:48.427Z,15.70
2017-08-01T23:30:16.992Z,13.13
2017-08-01T23:32:45.420Z,12.60
2017-08-01T23:35:15.592Z,13.97
2017-08-01T23:37:44.012Z,13.73
2017-08-01T23:40:12.428Z,12.60
2017-08-01T23:42:40.896Z,13.00
2017-08-01T23:45:10.080Z,15.83
2017-08-01T23:47:39.269Z,15.13
2017-08-01T23:50:08.284Z,15.80
2017-08-01T23:52:37.001Z,15.17
2017-08-01T23:55:05.425Z,15.67
2017-08-01T23:57:33.881Z,14.07
